sensor_id;sensor_type;location;lat;lon;timestamp;pressure;altitude;pressure_sealevel;temperature;humidity
14689;BME280;7432;48.728;9.154;2022-12-08T00:01:11;96141.59;;;2.38;87.53
14689;BME280;7432;48.728;9.154;2022-12-08T00:03:38;96147.75;;;2.35;87.96
14689;BME280;7432;48.728;9.154;2022-12-08T00:06:05;96142.34;;;2.29;87.81
14689;BME280;7432;48.728;9.154;2022-12-08T00:08:47;96145.56;;;2.20;87.67
14689;BME280;7432;48.728;9.154;2022-12-08T00:11:32;96149.16;;;2.17;87.83
14689;BME280;7432;48.728;9.154;2022-12-08T00:13:58;96133.13;;;2.06;88.28
14689;BME280;7432;48.728;9.154;2022-12-08T00:16:25;96145.94;;;2.04;88.17
14689;BME280;7432;48.728;9.154;2022-12-08T00:18:51;96141.19;;;2.00;88.22
14689;BME280;7432;48.728;9.154;2022-12-08T00:21:17;96148.13;;;1.87;87.10
14689;BME280;7432;48.728;9.154;2022-12-08T00:23:44;96145.28;;;1.80;88.64
14689;BME280;7432;48.728;9.154;2022-12-08T00:26:12;96136.72;;;1.70;88.78
14689;BME280;7432;48.728;9.154;2022-12-08T00:28:38;96140.88;;;1.60;88.90
14689;BME280;7432;48.728;9.154;2022-12-08T00:31:09;96131.16;;;1.43;87.87
14689;BME280;7432;48.728;9.154;2022-12-08T00:33:36;96132.19;;;1.40;89.29
14689;BME280;7432;48.728;9.154;2022-12-08T00:36:06;96128.50;;;1.33;89.16
14689;BME280;7432;48.728;9.154;2022-12-08T00:38:32;96132.38;;;1.26;88.96
14689;BME280;7432;48.728;9.154;2022-12-08T00:40:59;96120.75;;;1.24;88.96
14689;BME280;7432;48.728;9.154;2022-12-08T00:43:26;96111.81;;;1.07;90.53
14689;BME280;7432;48.728;9.154;2022-12-08T00:45:53;96118.97;;;1.02;90.14
14689;BME280;7432;48.728;9.154;2022-12-08T00:48:19;96112.31;;;1.01;90.89
14689;BME280;7432;48.728;9.154;2022-12-08T00:50:45;96111.09;;;0.94;90.88
14689;BME280;7432;48.728;9.154;2022-12-08T00:53:12;96112.94;;;0.92;91.22
14689;BME280;7432;48.728;9.154;2022-12-08T00:55:38;96107.41;;;0.87;91.01
14689;BME280;7432;48.728;9.154;2022-12-08T00:58:05;96108.53;;;0.83;91.54
14689;BME280;7432;48.728;9.154;2022-12-08T01:00:32;96103.91;;;0.77;91.63
14689;BME280;7432;48.728;9.154;2022-12-08T01:02:59;96107.13;;;0.68;92.02
14689;BME280;7432;48.728;9.154;2022-12-08T01:05:25;96105.41;;;0.68;92.06
14689;BME280;7432;48.728;9.154;2022-12-08T01:07:51;96099.81;;;0.63;91.42
14689;BME280;7432;48.728;9.154;2022-12-08T01:10:18;96095.31;;;0.55;91.62
14689;BME280;7432;48.728;9.154;2022-12-08T01:12:44;96097.50;;;0.49;91.99
14689;BME280;7432;48.728;9.154;2022-12-08T01:15:11;96100.94;;;0.48;92.48
14689;BME280;7432;48.728;9.154;2022-12-08T01:17:38;96114.13;;;0.40;92.26
14689;BME280;7432;48.728;9.154;2022-12-08T01:20:06;96113.31;;;0.40;92.22
14689;BME280;7432;48.728;9.154;2022-12-08T01:22:33;96123.44;;;0.40;92.33
14689;BME280;7432;48.728;9.154;2022-12-08T01:25:00;96114.16;;;0.28;92.07
14689;BME280;7432;48.728;9.154;2022-12-08T01:27:26;96113.25;;;0.29;92.45
14689;BME280;7432;48.728;9.154;2022-12-08T01:29:52;96117.41;;;0.30;92.79
14689;BME280;7432;48.728;9.154;2022-12-08T01:32:19;96100.53;;;0.18;92.44
14689;BME280;7432;48.728;9.154;2022-12-08T01:34:46;96122.09;;;0.23;92.31
14689;BME280;7432;48.728;9.154;2022-12-08T01:37:13;96115.59;;;0.19;92.74
14689;BME280;7432;48.728;9.154;2022-12-08T01:39:39;96120.47;;;0.22;92.68
14689;BME280;7432;48.728;9.154;2022-12-08T01:42:17;96116.88;;;0.14;93.03
14689;BME280;7432;48.728;9.154;2022-12-08T01:44:57;96114.81;;;0.19;93.09
14689;BME280;7432;48.728;9.154;2022-12-08T01:47:27;96107.47;;;0.03;93.06
14689;BME280;7432;48.728;9.154;2022-12-08T01:49:56;96119.91;;;0.06;93.04
14689;BME280;7432;48.728;9.154;2022-12-08T01:52:25;96124.28;;;0.04;93.24
14689;BME280;7432;48.728;9.154;2022-12-08T01:54:57;96111.75;;;0.03;93.05
14689;BME280;7432;48.728;9.154;2022-12-08T01:57:27;96127.00;;;0.01;93.35
14689;BME280;7432;48.728;9.154;2022-12-08T02:00:00;96114.28;;;0.03;93.14
14689;BME280;7432;48.728;9.154;2022-12-08T02:02:31;96109.28;;;0.01;92.56
14689;BME280;7432;48.728;9.154;2022-12-08T02:05:01;96107.69;;;0.00;92.97
14689;BME280;7432;48.728;9.154;2022-12-08T02:07:28;96097.38;;;-0.10;93.22
14689;BME280;7432;48.728;9.154;2022-12-08T02:09:56;96093.56;;;-0.15;93.33
14689;BME280;7432;48.728;9.154;2022-12-08T02:12:23;96083.91;;;-0.10;93.01
14689;BME280;7432;48.728;9.154;2022-12-08T02:14:49;96098.81;;;-0.18;93.79
14689;BME280;7432;48.728;9.154;2022-12-08T02:17:28;96090.53;;;-0.20;93.93
14689;BME280;7432;48.728;9.154;2022-12-08T02:20:16;96088.81;;;-0.20;93.55
14689;BME280;7432;48.728;9.154;2022-12-08T02:22:52;96085.84;;;-0.14;93.64
14689;BME280;7432;48.728;9.154;2022-12-08T02:25:26;96079.94;;;-0.25;93.66
14689;BME280;7432;48.728;9.154;2022-12-08T02:28:04;96083.84;;;-0.21;93.82
14689;BME280;7432;48.728;9.154;2022-12-08T02:30:37;96079.44;;;-0.30;94.36
14689;BME280;7432;48.728;9.154;2022-12-08T02:36:13;96063.25;;;-0.28;94.16
14689;BME280;7432;48.728;9.154;2022-12-08T02:38:47;96062.03;;;-0.35;93.77
14689;BME280;7432;48.728;9.154;2022-12-08T02:41:25;96059.63;;;-0.36;93.88
14689;BME280;7432;48.728;9.154;2022-12-08T02:43:59;96056.75;;;-0.32;94.01
14689;BME280;7432;48.728;9.154;2022-12-08T02:46:31;96054.97;;;-0.42;93.75
14689;BME280;7432;48.728;9.154;2022-12-08T02:48:58;96045.47;;;-0.51;93.71
14689;BME280;7432;48.728;9.154;2022-12-08T02:51:26;96052.75;;;-0.47;94.55
14689;BME280;7432;48.728;9.154;2022-12-08T02:53:53;96042.34;;;-0.55;94.60
14689;BME280;7432;48.728;9.154;2022-12-08T02:56:34;96041.53;;;-0.55;94.64
14689;BME280;7432;48.728;9.154;2022-12-08T02:59:11;96036.69;;;-0.58;94.66
14689;BME280;7432;48.728;9.154;2022-12-08T03:01:52;96037.38;;;-0.56;95.06
14689;BME280;7432;48.728;9.154;2022-12-08T03:04:28;96037.88;;;-0.51;94.90
14689;BME280;7432;48.728;9.154;2022-12-08T03:07:03;96036.50;;;-0.55;94.92
14689;BME280;7432;48.728;9.154;2022-12-08T03:09:35;96034.97;;;-0.58;94.67
14689;BME280;7432;48.728;9.154;2022-12-08T03:12:08;96033.34;;;-0.59;95.16
14689;BME280;7432;48.728;9.154;2022-12-08T03:14:38;96035.78;;;-0.57;95.06
14689;BME280;7432;48.728;9.154;2022-12-08T03:17:07;96035.69;;;-0.56;95.13
14689;BME280;7432;48.728;9.154;2022-12-08T03:19:36;96035.47;;;-0.53;94.72
14689;BME280;7432;48.728;9.154;2022-12-08T03:22:06;96032.34;;;-0.56;94.59
14689;BME280;7432;48.728;9.154;2022-12-08T03:24:35;96040.25;;;-0.61;94.96
14689;BME280;7432;48.728;9.154;2022-12-08T03:27:06;96038.53;;;-0.61;95.17
14689;BME280;7432;48.728;9.154;2022-12-08T03:29:33;96036.00;;;-0.61;94.92
14689;BME280;7432;48.728;9.154;2022-12-08T03:32:10;96030.53;;;-0.67;94.52
14689;BME280;7432;48.728;9.154;2022-12-08T03:34:43;96029.72;;;-0.68;95.09
14689;BME280;7432;48.728;9.154;2022-12-08T03:37:13;96022.75;;;-0.64;95.39
14689;BME280;7432;48.728;9.154;2022-12-08T03:39:40;96021.13;;;-0.65;94.98
14689;BME280;7432;48.728;9.154;2022-12-08T03:42:06;96017.28;;;-0.71;94.65
14689;BME280;7432;48.728;9.154;2022-12-08T03:44:33;96010.50;;;-0.70;95.02
14689;BME280;7432;48.728;9.154;2022-12-08T03:46:59;96017.09;;;-0.68;94.35
14689;BME280;7432;48.728;9.154;2022-12-08T03:49:26;96010.72;;;-0.73;94.60
14689;BME280;7432;48.728;9.154;2022-12-08T03:51:52;96005.09;;;-0.77;94.77
14689;BME280;7432;48.728;9.154;2022-12-08T03:54:20;96003.66;;;-0.81;94.76
14689;BME280;7432;48.728;9.154;2022-12-08T03:56:46;95994.44;;;-0.82;94.48
14689;BME280;7432;48.728;9.154;2022-12-08T03:59:13;95997.91;;;-0.83;94.79
14689;BME280;7432;48.728;9.154;2022-12-08T04:01:39;95993.56;;;-0.81;94.53
14689;BME280;7432;48.728;9.154;2022-12-08T04:04:05;95996.78;;;-0.79;94.67
14689;BME280;7432;48.728;9.154;2022-12-08T04:06:32;95995.59;;;-0.86;94.73
14689;BME280;7432;48.728;9.154;2022-12-08T04:08:58;95999.81;;;-0.86;94.88
14689;BME280;7432;48.728;9.154;2022-12-08T04:11:26;95996.50;;;-0.87;94.90
14689;BME280;7432;48.728;9.154;2022-12-08T04:13:52;96002.97;;;-0.83;94.78
14689;BME280;7432;48.728;9.154;2022-12-08T04:16:21;95990.94;;;-0.92;94.82
14689;BME280;7432;48.728;9.154;2022-12-08T04:18:48;95989.84;;;-0.88;95.11
14689;BME280;7432;48.728;9.154;2022-12-08T04:21:15;95989.91;;;-0.89;94.84
14689;BME280;7432;48.728;9.154;2022-12-08T04:23:42;95990.84;;;-0.90;95.07
14689;BME280;7432;48.728;9.154;2022-12-08T04:26:09;95992.97;;;-0.97;95.02
14689;BME280;7432;48.728;9.154;2022-12-08T04:28:37;95982.75;;;-0.95;94.78
14689;BME280;7432;48.728;9.154;2022-12-08T04:31:04;95980.41;;;-0.98;94.03
14689;BME280;7432;48.728;9.154;2022-12-08T04:33:31;95983.88;;;-0.99;94.76
14689;BME280;7432;48.728;9.154;2022-12-08T04:35:57;95982.16;;;-0.99;94.93
14689;BME280;7432;48.728;9.154;2022-12-08T04:38:24;95983.47;;;-1.06;94.97
14689;BME280;7432;48.728;9.154;2022-12-08T04:40:50;95975.31;;;-1.09;95.35
14689;BME280;7432;48.728;9.154;2022-12-08T04:43:16;95973.06;;;-1.14;95.29
14689;BME280;7432;48.728;9.154;2022-12-08T04:45:45;95972.38;;;-1.16;95.28
14689;BME280;7432;48.728;9.154;2022-12-08T04:48:11;95980.75;;;-1.03;95.20
14689;BME280;7432;48.728;9.154;2022-12-08T04:50:39;95967.63;;;-1.08;95.13
14689;BME280;7432;48.728;9.154;2022-12-08T04:53:06;95976.69;;;-1.05;94.88
14689;BME280;7432;48.728;9.154;2022-12-08T04:55:32;95975.00;;;-1.05;94.81
14689;BME280;7432;48.728;9.154;2022-12-08T04:57:59;95981.66;;;-1.16;95.05
14689;BME280;7432;48.728;9.154;2022-12-08T05:00:25;95979.25;;;-1.18;94.96
14689;BME280;7432;48.728;9.154;2022-12-08T05:02:53;95975.41;;;-1.11;95.22
14689;BME280;7432;48.728;9.154;2022-12-08T05:05:19;95977.72;;;-1.08;95.23
14689;BME280;7432;48.728;9.154;2022-12-08T05:07:46;95967.44;;;-1.17;94.88
14689;BME280;7432;48.728;9.154;2022-12-08T05:10:12;95963.09;;;-1.15;95.04
14689;BME280;7432;48.728;9.154;2022-12-08T05:12:39;95971.97;;;-1.10;94.72
14689;BME280;7432;48.728;9.154;2022-12-08T05:15:06;95962.69;;;-1.09;94.59
14689;BME280;7432;48.728;9.154;2022-12-08T05:17:32;95964.38;;;-1.10;94.47
14689;BME280;7432;48.728;9.154;2022-12-08T05:20:00;95954.38;;;-1.11;94.42
14689;BME280;7432;48.728;9.154;2022-12-08T05:22:27;95954.81;;;-1.17;94.65
14689;BME280;7432;48.728;9.154;2022-12-08T05:24:53;95952.97;;;-1.15;94.51
14689;BME280;7432;48.728;9.154;2022-12-08T05:27:20;95951.97;;;-1.13;94.38
14689;BME280;7432;48.728;9.154;2022-12-08T05:29:46;95947.63;;;-1.24;94.35
14689;BME280;7432;48.728;9.154;2022-12-08T05:32:12;95951.66;;;-1.21;94.45
14689;BME280;7432;48.728;9.154;2022-12-08T05:34:39;95957.41;;;-1.19;94.39
14689;BME280;7432;48.728;9.154;2022-12-08T05:37:07;95953.78;;;-1.28;94.37
14689;BME280;7432;48.728;9.154;2022-12-08T05:39:33;95953.47;;;-1.36;94.37
14689;BME280;7432;48.728;9.154;2022-12-08T05:41:59;95958.13;;;-1.30;93.98
14689;BME280;7432;48.728;9.154;2022-12-08T05:44:26;95959.16;;;-1.32;94.28
14689;BME280;7432;48.728;9.154;2022-12-08T05:46:52;95955.50;;;-1.28;94.31
14689;BME280;7432;48.728;9.154;2022-12-08T05:49:18;95960.03;;;-1.33;94.32
14689;BME280;7432;48.728;9.154;2022-12-08T05:51:45;95955.81;;;-1.33;94.32
14689;BME280;7432;48.728;9.154;2022-12-08T05:54:13;95956.41;;;-1.29;94.13
14689;BME280;7432;48.728;9.154;2022-12-08T05:56:39;95952.59;;;-1.35;94.31
14689;BME280;7432;48.728;9.154;2022-12-08T05:59:06;95953.09;;;-1.42;94.58
14689;BME280;7432;48.728;9.154;2022-12-08T06:01:32;95950.06;;;-1.35;94.26
14689;BME280;7432;48.728;9.154;2022-12-08T06:04:00;95950.97;;;-1.48;94.32
14689;BME280;7432;48.728;9.154;2022-12-08T06:06:27;95956.84;;;-1.48;94.72
14689;BME280;7432;48.728;9.154;2022-12-08T06:08:54;95945.09;;;-1.49;94.78
14689;BME280;7432;48.728;9.154;2022-12-08T06:11:25;95952.16;;;-1.41;94.70
14689;BME280;7432;48.728;9.154;2022-12-08T06:13:51;95951.88;;;-1.49;94.64
14689;BME280;7432;48.728;9.154;2022-12-08T06:16:18;95945.41;;;-1.53;95.08
14689;BME280;7432;48.728;9.154;2022-12-08T06:18:45;95953.78;;;-1.53;94.98
14689;BME280;7432;48.728;9.154;2022-12-08T06:21:12;95951.06;;;-1.50;94.98
14689;BME280;7432;48.728;9.154;2022-12-08T06:23:39;95952.38;;;-1.57;94.77
14689;BME280;7432;48.728;9.154;2022-12-08T06:26:08;95953.50;;;-1.48;94.75
14689;BME280;7432;48.728;9.154;2022-12-08T06:28:37;95951.25;;;-1.53;94.56
14689;BME280;7432;48.728;9.154;2022-12-08T06:31:06;95962.28;;;-1.54;94.59
14689;BME280;7432;48.728;9.154;2022-12-08T06:33:33;95958.22;;;-1.56;94.12
14689;BME280;7432;48.728;9.154;2022-12-08T06:36:00;95962.66;;;-1.60;94.17
14689;BME280;7432;48.728;9.154;2022-12-08T06:38:26;95941.16;;;-1.78;94.13
14689;BME280;7432;48.728;9.154;2022-12-08T06:40:53;95960.44;;;-1.64;94.96
14689;BME280;7432;48.728;9.154;2022-12-08T06:43:20;95954.28;;;-1.60;94.84
14689;BME280;7432;48.728;9.154;2022-12-08T06:45:48;95941.53;;;-1.71;95.19
14689;BME280;7432;48.728;9.154;2022-12-08T06:48:15;95952.88;;;-1.64;94.84
14689;BME280;7432;48.728;9.154;2022-12-08T06:50:41;95958.94;;;-1.67;94.97
14689;BME280;7432;48.728;9.154;2022-12-08T06:53:10;95961.34;;;-1.65;94.47
14689;BME280;7432;48.728;9.154;2022-12-08T06:55:36;95948.84;;;-1.67;94.91
14689;BME280;7432;48.728;9.154;2022-12-08T06:58:02;95958.19;;;-1.69;94.96
14689;BME280;7432;48.728;9.154;2022-12-08T07:00:29;95960.34;;;-1.63;94.81
14689;BME280;7432;48.728;9.154;2022-12-08T07:02:57;95960.25;;;-1.61;94.64
14689;BME280;7432;48.728;9.154;2022-12-08T07:05:23;95954.91;;;-1.57;94.59
14689;BME280;7432;48.728;9.154;2022-12-08T07:07:49;95958.44;;;-1.59;94.22
14689;BME280;7432;48.728;9.154;2022-12-08T07:10:16;95951.94;;;-1.63;94.63
14689;BME280;7432;48.728;9.154;2022-12-08T07:12:43;95965.69;;;-1.55;94.51
14689;BME280;7432;48.728;9.154;2022-12-08T07:15:09;95967.31;;;-1.54;93.95
14689;BME280;7432;48.728;9.154;2022-12-08T07:17:36;95963.16;;;-1.55;94.02
14689;BME280;7432;48.728;9.154;2022-12-08T07:20:05;95966.50;;;-1.54;93.81
14689;BME280;7432;48.728;9.154;2022-12-08T07:22:32;95965.19;;;-1.47;93.44
14689;BME280;7432;48.728;9.154;2022-12-08T07:24:58;95954.88;;;-1.44;93.49
14689;BME280;7432;48.728;9.154;2022-12-08T07:27:24;95958.22;;;-1.44;93.13
14689;BME280;7432;48.728;9.154;2022-12-08T07:29:51;95964.16;;;-1.45;93.44
14689;BME280;7432;48.728;9.154;2022-12-08T07:32:17;95960.97;;;-1.34;92.99
14689;BME280;7432;48.728;9.154;2022-12-08T07:34:44;95965.28;;;-1.36;92.81
14689;BME280;7432;48.728;9.154;2022-12-08T07:37:11;95959.84;;;-1.43;92.79
14689;BME280;7432;48.728;9.154;2022-12-08T07:39:38;95973.69;;;-1.36;92.64
14689;BME280;7432;48.728;9.154;2022-12-08T07:42:04;95980.25;;;-1.33;92.70
14689;BME280;7432;48.728;9.154;2022-12-08T07:44:31;95977.53;;;-1.30;92.60
14689;BME280;7432;48.728;9.154;2022-12-08T07:46:57;95977.72;;;-1.21;92.38
14689;BME280;7432;48.728;9.154;2022-12-08T07:49:24;95977.59;;;-1.06;92.77
14689;BME280;7432;48.728;9.154;2022-12-08T07:51:50;95967.41;;;0.50;92.23
14689;BME280;7432;48.728;9.154;2022-12-08T07:54:18;95964.78;;;3.18;81.94
14689;BME280;7432;48.728;9.154;2022-12-08T07:56:44;95963.34;;;5.71;70.37
14689;BME280;7432;48.728;9.154;2022-12-08T07:59:10;95965.50;;;7.91;60.83
14689;BME280;7432;48.728;9.154;2022-12-08T08:01:38;95963.69;;;9.45;54.64
14689;BME280;7432;48.728;9.154;2022-12-08T08:04:05;95963.25;;;10.56;50.79
14689;BME280;7432;48.728;9.154;2022-12-08T08:06:32;95964.44;;;9.62;49.40
14689;BME280;7432;48.728;9.154;2022-12-08T08:08:59;95964.63;;;7.66;53.07
14689;BME280;7432;48.728;9.154;2022-12-08T08:11:27;95950.25;;;6.02;57.86
14689;BME280;7432;48.728;9.154;2022-12-08T08:13:55;95963.75;;;4.37;62.88
14689;BME280;7432;48.728;9.154;2022-12-08T08:16:22;95966.81;;;3.24;67.10
14689;BME280;7432;48.728;9.154;2022-12-08T08:18:49;95952.88;;;2.47;71.46
14689;BME280;7432;48.728;9.154;2022-12-08T08:21:17;95957.81;;;2.07;74.78
14689;BME280;7432;48.728;9.154;2022-12-08T08:23:44;95956.97;;;1.86;75.95
14689;BME280;7432;48.728;9.154;2022-12-08T08:26:11;95950.59;;;1.60;77.10
14689;BME280;7432;48.728;9.154;2022-12-08T08:28:38;95957.06;;;1.53;79.55
14689;BME280;7432;48.728;9.154;2022-12-08T08:31:05;95965.59;;;1.41;80.21
14689;BME280;7432;48.728;9.154;2022-12-08T08:33:32;95964.00;;;1.29;80.63
14689;BME280;7432;48.728;9.154;2022-12-08T08:35:58;95959.28;;;1.13;82.46
14689;BME280;7432;48.728;9.154;2022-12-08T08:38:25;95961.25;;;0.98;82.90
14689;BME280;7432;48.728;9.154;2022-12-08T08:40:51;95952.63;;;0.90;83.48
14689;BME280;7432;48.728;9.154;2022-12-08T08:43:18;95952.47;;;0.80;84.27
14689;BME280;7432;48.728;9.154;2022-12-08T08:45:59;95944.88;;;0.80;84.64
14689;BME280;7432;48.728;9.154;2022-12-08T08:48:26;95954.78;;;0.83;84.88
14689;BME280;7432;48.728;9.154;2022-12-08T08:50:53;95951.91;;;0.88;85.54
14689;BME280;7432;48.728;9.154;2022-12-08T08:53:20;95952.25;;;0.83;84.69
14689;BME280;7432;48.728;9.154;2022-12-08T08:55:46;95925.78;;;0.76;84.60
14689;BME280;7432;48.728;9.154;2022-12-08T08:58:13;95946.72;;;0.89;85.55
14689;BME280;7432;48.728;9.154;2022-12-08T09:00:39;95948.69;;;0.86;85.14
14689;BME280;7432;48.728;9.154;2022-12-08T09:03:07;95946.97;;;0.86;84.54
14689;BME280;7432;48.728;9.154;2022-12-08T09:05:36;95947.88;;;0.85;86.20
14689;BME280;7432;48.728;9.154;2022-12-08T09:08:03;95945.91;;;0.89;85.09
14689;BME280;7432;48.728;9.154;2022-12-08T09:10:29;95939.94;;;0.90;86.01
14689;BME280;7432;48.728;9.154;2022-12-08T09:12:56;95939.22;;;0.88;85.44
14689;BME280;7432;48.728;9.154;2022-12-08T09:15:22;95932.88;;;0.82;85.81
14689;BME280;7432;48.728;9.154;2022-12-08T09:17:49;95931.75;;;0.86;86.52
14689;BME280;7432;48.728;9.154;2022-12-08T09:20:16;95928.53;;;0.84;85.52
14689;BME280;7432;48.728;9.154;2022-12-08T09:22:43;95921.97;;;0.93;86.04
14689;BME280;7432;48.728;9.154;2022-12-08T09:25:09;95927.97;;;1.03;85.84
14689;BME280;7432;48.728;9.154;2022-12-08T09:27:35;95940.72;;;0.90;85.57
14689;BME280;7432;48.728;9.154;2022-12-08T09:30:02;95932.22;;;0.91;85.27
14689;BME280;7432;48.728;9.154;2022-12-08T09:32:29;95924.16;;;0.86;85.59
14689;BME280;7432;48.728;9.154;2022-12-08T09:34:55;95923.13;;;1.00;85.93
14689;BME280;7432;48.728;9.154;2022-12-08T09:37:23;95923.91;;;1.11;84.30
14689;BME280;7432;48.728;9.154;2022-12-08T09:39:49;95922.97;;;1.01;84.99
14689;BME280;7432;48.728;9.154;2022-12-08T09:42:23;95929.44;;;1.05;84.79
14689;BME280;7432;48.728;9.154;2022-12-08T09:44:56;95923.78;;;1.13;85.18
14689;BME280;7432;48.728;9.154;2022-12-08T09:47:30;95915.50;;;1.11;85.60
14689;BME280;7432;48.728;9.154;2022-12-08T09:50:01;95918.72;;;1.13;85.40
14689;BME280;7432;48.728;9.154;2022-12-08T09:52:32;95893.16;;;1.05;84.54
14689;BME280;7432;48.728;9.154;2022-12-08T09:55:05;95914.34;;;1.15;85.00
14689;BME280;7432;48.728;9.154;2022-12-08T09:57:35;95907.31;;;1.18;84.70
14689;BME280;7432;48.728;9.154;2022-12-08T10:00:04;95913.63;;;1.24;86.19
14689;BME280;7432;48.728;9.154;2022-12-08T10:02:31;95916.06;;;1.26;85.18
14689;BME280;7432;48.728;9.154;2022-12-08T10:04:58;95909.16;;;1.16;84.62
14689;BME280;7432;48.728;9.154;2022-12-08T10:07:32;95901.91;;;1.12;85.91
14689;BME280;7432;48.728;9.154;2022-12-08T10:10:06;95903.63;;;1.23;85.73
14689;BME280;7432;48.728;9.154;2022-12-08T10:12:41;95894.97;;;1.36;85.50
14689;BME280;7432;48.728;9.154;2022-12-08T10:15:25;95897.25;;;1.39;84.79
14689;BME280;7432;48.728;9.154;2022-12-08T10:17:57;95889.97;;;1.46;85.51
14689;BME280;7432;48.728;9.154;2022-12-08T10:20:36;95871.75;;;1.41;84.52
14689;BME280;7432;48.728;9.154;2022-12-08T10:23:08;95877.63;;;1.52;85.62
14689;BME280;7432;48.728;9.154;2022-12-08T10:25:43;95885.19;;;1.63;84.58
14689;BME280;7432;48.728;9.154;2022-12-08T10:28:10;95875.28;;;1.60;86.15
14689;BME280;7432;48.728;9.154;2022-12-08T10:30:37;95870.31;;;1.59;85.32
14689;BME280;7432;48.728;9.154;2022-12-08T10:33:04;95875.59;;;1.67;85.61
14689;BME280;7432;48.728;9.154;2022-12-08T10:35:42;95882.16;;;1.69;85.36
14689;BME280;7432;48.728;9.154;2022-12-08T10:38:21;95873.34;;;1.85;85.12
14689;BME280;7432;48.728;9.154;2022-12-08T10:40:49;95861.69;;;1.82;83.57
14689;BME280;7432;48.728;9.154;2022-12-08T10:43:20;95880.09;;;1.95;83.71
14689;BME280;7432;48.728;9.154;2022-12-08T10:45:47;95872.97;;;1.89;83.05
14689;BME280;7432;48.728;9.154;2022-12-08T10:48:16;95876.50;;;1.98;81.96
14689;BME280;7432;48.728;9.154;2022-12-08T10:50:45;95873.72;;;2.01;81.56
14689;BME280;7432;48.728;9.154;2022-12-08T10:53:18;95870.13;;;2.03;82.29
14689;BME280;7432;48.728;9.154;2022-12-08T10:55:47;95872.41;;;2.06;82.19
14689;BME280;7432;48.728;9.154;2022-12-08T10:58:25;95862.25;;;2.06;83.23
14689;BME280;7432;48.728;9.154;2022-12-08T11:00:54;95861.88;;;2.11;82.49
14689;BME280;7432;48.728;9.154;2022-12-08T11:03:25;95855.63;;;2.15;82.31
14689;BME280;7432;48.728;9.154;2022-12-08T11:05:55;95848.59;;;2.18;80.94
14689;BME280;7432;48.728;9.154;2022-12-08T11:08:24;95846.03;;;2.18;81.96
14689;BME280;7432;48.728;9.154;2022-12-08T11:10:51;95847.16;;;2.25;82.07
14689;BME280;7432;48.728;9.154;2022-12-08T11:13:20;95838.28;;;2.20;81.77
14689;BME280;7432;48.728;9.154;2022-12-08T11:15:48;95831.88;;;2.16;81.38
14689;BME280;7432;48.728;9.154;2022-12-08T11:18:21;95832.66;;;2.16;81.39
14689;BME280;7432;48.728;9.154;2022-12-08T11:20:57;95819.78;;;2.29;81.42
14689;BME280;7432;48.728;9.154;2022-12-08T11:23:26;95817.34;;;2.27;81.18
14689;BME280;7432;48.728;9.154;2022-12-08T11:25:55;95819.84;;;2.18;80.99
14689;BME280;7432;48.728;9.154;2022-12-08T11:28:24;95822.38;;;2.18;81.84
14689;BME280;7432;48.728;9.154;2022-12-08T11:30:54;95807.69;;;2.21;80.51
14689;BME280;7432;48.728;9.154;2022-12-08T11:33:24;95812.31;;;2.37;80.49
14689;BME280;7432;48.728;9.154;2022-12-08T11:35:54;95801.38;;;2.46;80.42
14689;BME280;7432;48.728;9.154;2022-12-08T11:38:25;95809.28;;;2.43;80.62
14689;BME280;7432;48.728;9.154;2022-12-08T11:40:55;95811.69;;;2.54;80.88
14689;BME280;7432;48.728;9.154;2022-12-08T11:43:26;95808.00;;;2.58;79.43
14689;BME280;7432;48.728;9.154;2022-12-08T11:45:57;95807.91;;;2.69;78.67
14689;BME280;7432;48.728;9.154;2022-12-08T11:48:29;95793.63;;;2.78;79.99
14689;BME280;7432;48.728;9.154;2022-12-08T11:51:00;95795.53;;;2.95;78.14
14689;BME280;7432;48.728;9.154;2022-12-08T11:53:36;95800.38;;;3.27;76.98
14689;BME280;7432;48.728;9.154;2022-12-08T11:56:10;95795.16;;;3.47;75.77
14689;BME280;7432;48.728;9.154;2022-12-08T11:58:42;95798.78;;;3.64;73.98
14689;BME280;7432;48.728;9.154;2022-12-08T12:01:16;95789.53;;;3.73;72.90
14689;BME280;7432;48.728;9.154;2022-12-08T12:03:47;95800.53;;;3.64;72.59
14689;BME280;7432;48.728;9.154;2022-12-08T12:06:41;95792.63;;;3.47;72.30
14689;BME280;7432;48.728;9.154;2022-12-08T12:09:18;95787.94;;;3.43;73.15
14689;BME280;7432;48.728;9.154;2022-12-08T12:12:00;95793.16;;;3.32;74.62
14689;BME280;7432;48.728;9.154;2022-12-08T12:17:54;95782.03;;;3.23;74.01
14689;BME280;7432;48.728;9.154;2022-12-08T12:20:26;95778.56;;;3.34;74.20
14689;BME280;7432;48.728;9.154;2022-12-08T12:22:57;95786.06;;;3.45;74.03
14689;BME280;7432;48.728;9.154;2022-12-08T12:25:28;95778.19;;;3.57;73.06
14689;BME280;7432;48.728;9.154;2022-12-08T12:27:57;95778.16;;;3.67;73.41
14689;BME280;7432;48.728;9.154;2022-12-08T12:30:27;95777.22;;;3.68;72.57
14689;BME280;7432;48.728;9.154;2022-12-08T12:32:57;95778.31;;;3.66;71.85
14689;BME280;7432;48.728;9.154;2022-12-08T12:35:31;95769.97;;;3.73;71.50
14689;BME280;7432;48.728;9.154;2022-12-08T12:38:02;95760.44;;;3.75;72.31
14689;BME280;7432;48.728;9.154;2022-12-08T12:40:39;95763.97;;;3.74;72.12
14689;BME280;7432;48.728;9.154;2022-12-08T12:43:23;95761.78;;;3.89;71.51
14689;BME280;7432;48.728;9.154;2022-12-08T12:52:00;95751.56;;;4.35;66.65
14689;BME280;7432;48.728;9.154;2022-12-08T12:54:27;95751.34;;;4.29;68.11
14689;BME280;7432;48.728;9.154;2022-12-08T12:57:14;95747.44;;;4.34;68.91
14689;BME280;7432;48.728;9.154;2022-12-08T12:59:45;95742.34;;;4.34;68.70
14689;BME280;7432;48.728;9.154;2022-12-08T13:02:18;95732.09;;;4.44;68.40
14689;BME280;7432;48.728;9.154;2022-12-08T13:04:53;95735.72;;;4.41;67.83
14689;BME280;7432;48.728;9.154;2022-12-08T13:07:21;95743.97;;;4.26;68.05
14689;BME280;7432;48.728;9.154;2022-12-08T13:09:55;95737.97;;;4.17;67.73
14689;BME280;7432;48.728;9.154;2022-12-08T13:12:24;95738.44;;;4.30;69.47
14689;BME280;7432;48.728;9.154;2022-12-08T13:14:56;95745.66;;;4.35;67.82
14689;BME280;7432;48.728;9.154;2022-12-08T13:17:27;95741.25;;;4.37;67.69
14689;BME280;7432;48.728;9.154;2022-12-08T13:19:57;95750.84;;;4.15;66.21
14689;BME280;7432;48.728;9.154;2022-12-08T13:22:47;95740.66;;;4.15;67.80
14689;BME280;7432;48.728;9.154;2022-12-08T13:28:27;95738.13;;;4.43;68.64
14689;BME280;7432;48.728;9.154;2022-12-08T13:30:55;95732.91;;;4.44;67.09
14689;BME280;7432;48.728;9.154;2022-12-08T13:33:30;95737.81;;;4.28;66.13
14689;BME280;7432;48.728;9.154;2022-12-08T13:36:06;95746.34;;;4.37;66.28
14689;BME280;7432;48.728;9.154;2022-12-08T13:38:37;95736.44;;;4.34;66.57
14689;BME280;7432;48.728;9.154;2022-12-08T13:41:08;95718.25;;;4.19;65.97
14689;BME280;7432;48.728;9.154;2022-12-08T13:43:43;95741.56;;;4.24;65.97